Time;durP1;ratioP1;P1;durP2;ratioP2;P2;SDS_P1;SDS_P2;PMS_P1;PMS_P2;Temp;Humidity;BMP_temperature;BMP_pressure;BME280_temperature;BME280_humidity;BME280_pressure;Samples;Min_cycle;Max_cycle;Signal;HPM_P1;HPM_P2
2022/07/21 00:01:01;;;;;;;4.75;2.30;;;;;;;24.46;43.99;95218.56;4980157;28;20716;-53
2022/07/21 00:03:26;;;;;;;5.20;2.50;;;;;;;24.44;44.35;95215.59;4985895;28;20030;-52
2022/07/21 00:05:52;;;;;;;4.22;1.88;;;;;;;24.36;44.00;95206.47;4984850;28;20033;-52
2022/07/21 00:08:17;;;;;;;5.45;2.42;;;;;;;24.37;44.30;95221.63;4985645;28;20139;-52
2022/07/21 00:10:43;;;;;;;4.15;2.40;;;;;;;24.34;43.99;95228.09;4986282;28;20027;-52
2022/07/21 00:13:08;;;;;;;4.15;2.47;;;;;;;24.31;44.47;95215.44;4985759;28;20034;-52
2022/07/21 00:15:34;;;;;;;7.35;2.80;;;;;;;24.29;44.20;95215.22;4976241;28;20129;-54
2022/07/21 00:18:00;;;;;;;4.90;2.55;;;;;;;24.30;43.87;95216.69;4963228;28;20184;-55
2022/07/21 00:20:27;;;;;;;5.07;2.70;;;;;;;24.29;43.80;95217.94;4985114;28;20042;-53
2022/07/21 00:22:53;;;;;;;3.97;2.60;;;;;;;24.28;44.13;95213.75;4967417;28;20756;-53
2022/07/21 00:25:19;;;;;;;4.57;2.78;;;;;;;24.25;43.89;95225.66;4986125;28;20022;-52
2022/07/21 00:27:44;;;;;;;4.70;2.72;;;;;;;24.16;44.40;95212.34;4984481;28;20497;-52
2022/07/21 00:30:10;;;;;;;3.58;2.60;;;;;;;24.19;44.59;95227.72;4985740;28;20493;-52
2022/07/21 00:32:36;;;;;;;4.30;2.60;;;;;;;24.15;44.67;95221.78;4985186;28;20035;-52
2022/07/21 00:35:02;;;;;;;5.97;2.80;;;;;;;24.15;44.82;95216.31;4968100;28;20196;-52
2022/07/21 00:37:29;;;;;;;5.35;2.92;;;;;;;24.11;44.71;95215.88;4977991;28;20451;-52
2022/07/21 00:39:54;;;;;;;5.65;3.00;;;;;;;24.13;44.44;95229.00;4985597;28;20026;-52
2022/07/21 00:42:23;;;;;;;5.25;2.83;;;;;;;24.07;44.65;95214.69;4967720;28;20544;-52
2022/07/21 00:44:49;;;;;;;4.80;2.90;;;;;;;24.08;44.67;95227.81;4968468;28;20038;-52
2022/07/21 00:47:15;;;;;;;6.28;2.72;;;;;;;24.01;44.86;95214.72;4985321;28;20096;-52
2022/07/21 00:49:42;;;;;;;8.45;2.80;;;;;;;24.03;44.74;95214.94;4968264;28;20038;-52
2022/07/21 00:52:07;;;;;;;4.50;2.75;;;;;;;23.98;44.74;95212.25;4985021;28;20390;-52
2022/07/21 00:54:33;;;;;;;5.70;2.63;;;;;;;23.99;44.80;95228.13;4984375;28;20088;-52
2022/07/21 00:56:58;;;;;;;4.75;3.10;;;;;;;23.98;44.76;95223.91;4941460;28;20454;-52
2022/07/21 00:59:24;;;;;;;5.07;2.88;;;;;;;23.98;44.56;95223.91;4972608;28;20026;-52
2022/07/21 01:01:49;;;;;;;4.55;2.90;;;;;;;23.97;45.07;95219.69;4984564;28;20521;-52
2022/07/21 01:04:15;;;;;;;4.60;2.90;;;;;;;23.96;44.83;95212.78;4985187;28;20458;-56
2022/07/21 01:06:40;;;;;;;5.82;3.10;;;;;;;23.93;44.77;95211.06;4984951;28;20037;-52
2022/07/21 01:09:06;;;;;;;4.90;3.00;;;;;;;23.87;44.54;95202.19;4967498;28;20054;-52
2022/07/21 01:11:31;;;;;;;4.90;3.17;;;;;;;23.84;44.79;95196.25;4983423;28;20035;-52
2022/07/21 01:13:57;;;;;;;6.00;3.00;;;;;;;23.87;45.13;95207.63;4984973;28;20061;-52
2022/07/21 01:16:22;;;;;;;4.43;2.80;;;;;;;23.89;45.36;95204.41;4937830;28;20105;-52
2022/07/21 01:18:48;;;;;;;5.78;3.03;;;;;;;23.87;45.36;95204.19;4984846;28;20119;-52
2022/07/21 01:21:34;;;;;;;4.20;3.00;;;;;;;23.76;45.14;95184.41;4966874;28;20049;-52
2022/07/21 01:23:59;;;;;;;6.20;3.05;;;;;;;23.81;45.39;95202.72;4984625;28;20528;-52
2022/07/21 01:26:25;;;;;;;4.07;2.70;;;;;;;23.79;45.46;95199.78;4984587;28;20014;-53
2022/07/21 01:28:51;;;;;;;5.55;2.50;;;;;;;23.75;45.23;95202.03;4985064;28;20149;-52
2022/07/21 01:31:16;;;;;;;5.10;2.97;;;;;;;23.73;45.45;95197.06;4984825;28;20058;-52
2022/07/21 01:33:42;;;;;;;3.88;2.40;;;;;;;23.75;45.82;95202.03;4984719;28;20579;-52
2022/07/21 01:36:07;;;;;;;4.82;2.60;;;;;;;23.68;45.78;95188.94;4984484;28;20030;-53
2022/07/21 01:41:29;;;;;;;4.88;2.75;;;;;;;23.69;45.56;95190.41;4984577;28;20072;-52
2022/07/21 01:43:56;;;;;;;4.97;2.47;;;;;;;23.67;45.82;95187.47;4984551;28;20026;-53
2022/07/21 01:46:21;;;;;;;4.60;3.47;;;;;;;23.66;45.34;95191.44;4984346;28;20040;-52
2022/07/21 01:48:47;;;;;;;5.15;2.72;;;;;;;23.67;46.02;95192.91;4983900;28;20109;-52
2022/07/21 01:51:12;;;;;;;3.83;2.63;;;;;;;23.63;45.97;95193.16;4984305;28;20077;-52
2022/07/21 01:53:38;;;;;;;5.43;2.92;;;;;;;23.62;45.57;95196.41;4984529;28;20136;-53
2022/07/21 01:56:04;;;;;;;5.35;2.80;;;;;;;23.57;45.85;95188.97;4984469;28;20141;-53
2022/07/21 01:58:30;;;;;;;5.18;2.45;;;;;;;23.53;45.89;95188.53;4984317;28;20121;-52
2022/07/21 02:00:56;;;;;;;3.60;2.78;;;;;;;23.56;46.19;95192.97;4966011;28;20041;-52
2022/07/21 02:03:21;;;;;;;4.95;2.88;;;;;;;23.53;46.34;95188.53;4984316;28;20034;-52
2022/07/21 02:05:47;;;;;;;4.85;2.70;;;;;;;23.53;46.23;95183.06;4963542;28;20034;-53
2022/07/21 02:08:12;;;;;;;4.75;2.67;;;;;;;23.48;46.02;95186.56;4973970;28;20038;-52
2022/07/21 02:10:38;;;;;;;5.47;2.95;;;;;;;23.42;46.00;95183.13;4984672;28;20093;-52
2022/07/21 02:13:03;;;;;;;4.28;2.60;;;;;;;23.47;46.16;95190.56;4982403;28;20265;-52
2022/07/21 02:15:30;;;;;;;4.25;2.60;;;;;;;23.45;46.42;95198.47;4974840;28;20494;-52
2022/07/21 02:17:56;;;;;;;4.65;2.30;;;;;;;23.44;46.45;95197.00;4970704;28;20422;-52
2022/07/21 02:20:21;;;;;;;4.03;2.60;;;;;;;23.43;46.20;95200.97;4983751;28;20513;-53
2022/07/21 02:22:47;;;;;;;4.85;2.85;;;;;;;23.38;46.14;95193.56;4965975;28;20029;-52
2022/07/21 02:25:13;;;;;;;5.70;2.72;;;;;;;23.34;46.56;95187.66;4983612;28;20038;-53
2022/07/21 02:27:40;;;;;;;3.90;2.60;;;;;;;23.32;46.49;95184.69;4966162;28;20453;-52
2022/07/21 02:30:05;;;;;;;6.45;2.92;;;;;;;23.36;46.52;95196.06;4983745;28;20022;-52
2022/07/21 02:32:31;;;;;;;5.15;2.58;;;;;;;23.30;46.37;95176.25;4965518;28;20153;-52
2022/07/21 02:34:56;;;;;;;6.05;2.88;;;;;;;23.32;45.89;95190.16;4982583;28;20026;-52
2022/07/21 02:37:22;;;;;;;5.03;2.83;;;;;;;23.33;45.90;95191.59;4983079;28;20023;-52
2022/07/21 02:39:48;;;;;;;4.85;2.42;;;;;;;23.28;46.24;95184.22;4983940;28;20102;-52
2022/07/21 02:42:14;;;;;;;5.30;3.08;;;;;;;23.29;45.96;95185.72;4983269;28;20525;-53
2022/07/21 02:44:39;;;;;;;5.07;2.70;;;;;;;23.28;46.63;95184.22;4983648;28;20105;-53
2022/07/21 02:47:05;;;;;;;4.97;3.05;;;;;;;23.27;46.42;95182.72;4974363;28;20023;-52
2022/07/21 02:49:30;;;;;;;4.28;2.45;;;;;;;23.20;46.21;95177.81;4976841;28;20046;-52
2022/07/21 02:51:55;;;;;;;6.43;2.67;;;;;;;23.18;46.22;95183.03;4982905;28;20023;-53
2022/07/21 02:54:21;;;;;;;5.43;2.47;;;;;;;23.10;46.67;95171.19;4979605;28;20489;-52
2022/07/21 02:56:46;;;;;;;3.70;2.58;;;;;;;23.12;46.58;95168.72;4981582;28;20018;-52
2022/07/21 02:59:12;;;;;;;3.50;2.22;;;;;;;23.19;46.38;95183.78;4983184;28;20544;-52
2022/07/21 03:01:37;;;;;;;4.65;2.50;;;;;;;23.18;46.85;95180.28;4982307;28;20041;-52
2022/07/21 03:04:03;;;;;;;5.20;2.60;;;;;;;23.16;46.43;95188.25;4983023;28;20026;-52
2022/07/21 03:06:28;;;;;;;3.78;2.38;;;;;;;23.13;46.37;95191.97;4981542;28;20053;-53
2022/07/21 03:08:54;;;;;;;5.35;2.67;;;;;;;23.13;46.88;95191.97;4983052;28;20045;-52
2022/07/21 03:11:19;;;;;;;3.78;2.78;;;;;;;23.08;46.62;95187.31;4981721;28;20135;-53
2022/07/21 03:13:45;;;;;;;4.35;2.38;;;;;;;22.97;46.83;95175.72;4982867;28;20029;-53
2022/07/21 03:16:10;;;;;;;4.70;2.50;;;;;;;23.10;46.58;95189.53;4969197;28;20032;-53
2022/07/21 03:18:36;;;;;;;5.68;2.63;;;;;;;23.07;46.72;95188.53;4983003;28;20022;-53
2022/07/21 03:21:01;;;;;;;5.70;2.95;;;;;;;23.05;46.77;95185.59;4982810;28;20531;-52
2022/07/21 03:23:27;;;;;;;3.92;2.65;;;;;;;23.02;46.44;95183.13;4981987;28;20030;-52
2022/07/21 03:25:52;;;;;;;4.80;2.67;;;;;;;23.01;46.80;95187.81;4983150;28;20026;-52
2022/07/21 03:28:18;;;;;;;4.18;2.80;;;;;;;23.01;47.03;95198.72;4964910;28;20521;-53
2022/07/21 03:30:43;;;;;;;3.22;2.67;;;;;;;23.02;46.79;95194.75;4983250;28;20673;-53
2022/07/21 03:33:09;;;;;;;6.20;2.90;;;;;;;23.02;46.94;95194.75;4982316;28;20029;-52
2022/07/21 03:35:35;;;;;;;4.35;2.40;;;;;;;22.95;46.88;95183.66;4971936;28;20436;-52
2022/07/21 03:38:01;;;;;;;4.47;2.63;;;;;;;23.01;46.51;95190.53;4981909;28;20134;-52
2022/07/21 03:40:28;;;;;;;5.30;3.03;;;;;;;22.99;46.72;95201.22;4962980;28;20187;-52
2022/07/21 03:42:55;;;;;;;4.82;2.88;;;;;;;22.98;46.87;95198.97;4961372;28;20046;-52
2022/07/21 03:45:20;;;;;;;3.50;2.63;;;;;;;22.97;46.83;95190.09;4962928;28;20053;-52
2022/07/21 03:47:46;;;;;;;4.93;2.97;;;;;;;22.93;47.35;95203.22;4964803;28;20494;-52
2022/07/21 03:50:12;;;;;;;3.13;2.63;;;;;;;22.96;46.78;95202.22;4965371;28;20528;-52
2022/07/21 03:52:37;;;;;;;4.78;2.53;;;;;;;22.90;46.92;95195.28;4982308;28;20022;-52
2022/07/21 03:55:09;;;;;;;6.32;2.95;;;;;;;22.93;46.83;95203.22;4982744;28;20716;-52
2022/07/21 03:57:39;;;;;;;3.78;2.65;;;;;;;22.94;46.75;95204.69;4982052;28;20078;-52
2022/07/21 04:00:07;;;;;;;4.68;2.83;;;;;;;22.96;47.07;95206.94;4982508;28;20136;-52
2022/07/21 04:02:32;;;;;;;4.05;2.90;;;;;;;22.95;46.98;95206.16;4978263;28;20026;-53
2022/07/21 04:04:58;;;;;;;5.93;3.65;;;;;;;22.90;47.22;95209.63;4981354;28;20034;-53
2022/07/21 04:07:23;;;;;;;4.65;2.92;;;;;;;22.95;46.87;95206.16;4982043;28;20014;-52
2022/07/21 04:09:49;;;;;;;5.57;2.80;;;;;;;22.94;46.98;95210.16;4982879;28;20034;-52
2022/07/21 04:12:14;;;;;;;4.68;2.78;;;;;;;22.93;47.50;95203.22;4981346;28;20033;-52
2022/07/21 04:14:40;;;;;;;4.32;2.58;;;;;;;22.97;47.73;95209.16;4979222;28;20030;-52
2022/07/21 04:17:05;;;;;;;4.60;2.72;;;;;;;22.97;47.76;95211.88;4969723;28;20053;-54
2022/07/21 04:19:31;;;;;;;3.63;2.58;;;;;;;22.97;47.74;95213.84;4979232;28;20031;-52
2022/07/21 04:21:57;;;;;;;3.15;2.80;;;;;;;22.97;47.43;95208.38;4961668;28;20418;-52
2022/07/21 04:24:23;;;;;;;4.97;2.63;;;;;;;22.93;47.53;95203.22;4969705;28;20170;-52
2022/07/21 04:26:48;;;;;;;4.80;2.78;;;;;;;22.99;47.23;95209.38;4981187;28;20066;-52
2022/07/21 04:29:14;;;;;;;8.00;3.53;;;;;;;23.00;47.71;95210.09;4982068;28;20109;-52
2022/07/21 04:31:39;;;;;;;6.68;3.00;;;;;;;23.01;47.30;95209.59;4981514;28;20819;-53
2022/07/21 04:34:05;;;;;;;3.53;2.42;;;;;;;22.96;47.72;95202.22;4979047;28;20026;-53
2022/07/21 04:36:30;;;;;;;3.45;2.72;;;;;;;23.06;47.56;95217.03;4977235;28;20015;-52
2022/07/21 04:38:56;;;;;;;7.15;2.88;;;;;;;23.06;47.22;95211.59;4968836;28;20049;-53
2022/07/21 04:41:21;;;;;;;4.78;2.50;;;;;;;23.13;46.82;95211.03;4984634;28;20093;-52
2022/07/21 04:43:46;;;;;;;6.13;2.90;;;;;;;23.21;46.81;95217.44;4972700;28;20035;-52
2022/07/21 04:46:12;;;;;;;8.75;2.67;;;;;;;23.23;46.79;95214.97;4965677;28;20066;-51
2022/07/21 04:48:38;;;;;;;5.57;2.90;;;;;;;23.33;46.42;95224.31;4966772;28;20023;-53
2022/07/21 04:51:03;;;;;;;5.40;3.20;;;;;;;23.38;45.68;95226.28;4965310;28;20467;-52
2022/07/21 04:53:29;;;;;;;4.22;3.30;;;;;;;23.31;45.64;95201.56;4965309;28;20022;-53
2022/07/21 04:55:54;;;;;;;5.70;2.90;;;;;;;23.43;44.68;95228.22;4965822;28;20034;-53
2022/07/21 04:58:20;;;;;;;6.60;3.03;;;;;;;23.43;45.16;95226.22;4965321;28;20023;-52
2022/07/21 05:00:45;;;;;;;5.90;2.92;;;;;;;23.50;44.97;95233.16;4969882;28;20554;-53
2022/07/21 05:03:13;;;;;;;8.02;2.90;;;;;;;23.52;45.15;95225.19;4976349;28;20057;-54
2022/07/21 05:05:38;;;;;;;5.25;3.28;;;;;;;23.54;44.36;95230.88;4984978;28;20022;-52
2022/07/21 05:08:04;;;;;;;4.20;2.67;;;;;;;23.55;44.57;95226.91;4964379;28;20018;-51
2022/07/21 05:10:30;;;;;;;5.28;2.95;;;;;;;23.60;44.67;95226.13;4965118;28;20114;-53
2022/07/21 05:12:55;;;;;;;6.60;2.95;;;;;;;23.61;44.43;95216.72;4950981;28;20031;-52
2022/07/21 05:15:21;;;;;;;5.05;3.05;;;;;;;23.69;44.16;95217.69;4977116;28;20030;-53
2022/07/21 05:17:46;;;;;;;5.65;2.85;;;;;;;23.73;44.17;95212.72;4982386;28;21107;-52
2022/07/21 05:20:12;;;;;;;8.25;3.35;;;;;;;23.84;44.41;95218.06;4985335;28;20112;-53
2022/07/21 05:22:37;;;;;;;5.05;3.08;;;;;;;23.96;44.21;95220.97;4970274;28;20118;-53
2022/07/21 05:25:04;;;;;;;5.05;3.17;;;;;;;24.08;43.86;95216.91;4947660;28;20538;-51
2022/07/21 05:27:29;;;;;;;6.25;3.17;;;;;;;24.22;43.57;95232.16;4965992;28;20505;-53
2022/07/21 05:29:55;;;;;;;10.23;3.35;;;;;;;24.30;43.38;95208.50;4964394;28;20034;-53
2022/07/21 05:32:21;;;;;;;5.20;2.70;;;;;;;24.48;43.97;95216.03;4964770;28;20430;-53
2022/07/21 05:34:46;;;;;;;5.22;3.13;;;;;;;24.59;44.23;95215.97;4964937;28;20025;-54
2022/07/21 05:37:12;;;;;;;5.00;2.72;;;;;;;24.80;43.34;95225.16;4967072;28;20030;-52
2022/07/21 05:39:37;;;;;;;5.65;2.83;;;;;;;24.96;43.07;95225.72;4964849;28;20034;-53
2022/07/21 05:42:03;;;;;;;7.35;2.97;;;;;;;25.13;43.07;95236.47;4964341;28;20039;-51
2022/07/21 05:44:28;;;;;;;5.70;3.22;;;;;;;25.28;43.35;95221.13;4979167;28;20822;-52
2022/07/21 05:46:54;;;;;;;7.65;3.17;;;;;;;25.48;42.31;95215.13;4978407;28;20093;-55
2022/07/21 05:49:19;;;;;;;4.28;3.20;;;;;;;25.64;42.04;95219.63;4968037;28;20648;-54
2022/07/21 05:51:44;;;;;;;6.53;2.83;;;;;;;25.81;41.35;95229.84;4984097;28;20042;-52
2022/07/21 05:54:10;;;;;;;5.60;2.90;;;;;;;25.74;41.37;95207.06;4984085;28;20037;-54
2022/07/21 05:56:35;;;;;;;5.43;2.97;;;;;;;26.06;40.71;95217.50;4983138;28;20030;-53
2022/07/21 05:59:01;;;;;;;5.95;3.20;;;;;;;26.26;40.10;95229.88;4984390;28;20027;-55
2022/07/21 06:01:26;;;;;;;6.70;2.97;;;;;;;26.29;39.89;95207.69;4971418;28;20542;-53
2022/07/21 06:03:52;;;;;;;6.80;3.05;;;;;;;26.50;39.43;95219.53;4966503;28;20022;-53
2022/07/21 06:06:18;;;;;;;4.80;3.13;;;;;;;26.64;39.03;95221.03;4976936;28;20061;-53
2022/07/21 06:08:46;;;;;;;8.88;3.63;;;;;;;26.56;39.99;95209.22;4966928;28;20676;-54
2022/07/21 06:11:13;;;;;;;6.53;3.20;;;;;;;26.79;40.14;95211.75;4964464;28;20038;-53
2022/07/21 06:13:38;;;;;;;7.07;3.22;;;;;;;26.83;39.77;95209.44;4983158;28;20034;-53
2022/07/21 06:16:04;;;;;;;5.97;3.28;;;;;;;27.02;39.04;95223.78;4971049;28;20090;-56
2022/07/21 06:18:30;;;;;;;6.57;3.08;;;;;;;27.10;38.83;95208.19;4966242;28;20033;-54
2022/07/21 06:20:55;;;;;;;7.15;3.33;;;;;;;27.21;38.81;95212.72;4964704;28;20074;-53
2022/07/21 06:23:21;;;;;;;7.78;2.90;;;;;;;27.20;38.82;95211.25;4963921;28;20037;-53
2022/07/21 06:25:47;;;;;;;5.35;2.78;;;;;;;27.20;39.26;95200.28;4967166;28;20110;-54
2022/07/21 06:28:12;;;;;;;6.85;3.08;;;;;;;27.32;38.50;95207.72;4966079;28;20022;-54
2022/07/21 06:30:38;;;;;;;7.18;3.80;;;;;;;27.40;38.57;95205.84;4964231;28;20136;-54
2022/07/21 06:33:03;;;;;;;7.20;3.15;;;;;;;27.41;38.60;95199.06;4966367;28;20027;-54
2022/07/21 06:35:29;;;;;;;8.38;3.42;;;;;;;27.49;38.38;95194.41;4967341;28;20468;-54
2022/07/21 06:37:54;;;;;;;7.22;3.22;;;;;;;27.67;37.86;95193.50;4963654;28;20039;-54
2022/07/21 06:40:20;;;;;;;7.53;3.40;;;;;;;27.78;37.73;95189.25;4974852;28;20034;-56
2022/07/21 06:42:45;;;;;;;6.85;3.63;;;;;;;27.91;37.75;95194.69;4972827;28;20038;-52
2022/07/21 06:45:11;;;;;;;10.57;3.40;;;;;;;27.96;37.62;95193.81;4965503;28;20086;-55
2022/07/21 06:47:36;;;;;;;6.38;3.83;;;;;;;27.95;37.48;95197.84;4966823;28;20046;-53
2022/07/21 06:50:03;;;;;;;7.78;3.20;;;;;;;27.99;37.84;95186.53;4966233;28;20122;-54
2022/07/21 06:52:32;;;;;;;8.00;3.78;;;;;;;28.15;37.40;95193.66;4964881;28;20482;-54
2022/07/21 06:54:57;;;;;;;6.27;3.50;;;;;;;28.07;36.83;95185.34;4965880;28;20070;-54
2022/07/21 06:57:23;;;;;;;9.85;3.63;;;;;;;28.11;37.22;95199.47;4964940;28;20041;-54
2022/07/21 06:59:48;;;;;;;12.82;3.65;;;;;;;28.24;37.17;95196.66;4958895;28;20543;-53
2022/07/21 07:02:14;;;;;;;7.07;3.30;;;;;;;28.06;37.02;95186.59;4963800;28;20027;-54
2022/07/21 07:04:39;;;;;;;8.73;3.30;;;;;;;28.12;37.43;95187.22;4964473;28;20075;-53
2022/07/21 07:07:05;;;;;;;10.55;4.40;;;;;;;28.03;37.03;95193.16;4966067;28;20011;-55
2022/07/21 07:09:30;;;;;;;10.80;3.72;;;;;;;28.00;37.30;95188.00;4966717;28;20570;-53
2022/07/21 07:12:03;;;;;;;9.98;4.05;;;;;;;27.88;37.72;95182.03;4967074;28;20061;-54
2022/07/21 07:14:30;;;;;;;7.25;3.45;;;;;;;27.84;37.22;95181.63;4970214;28;20431;-54
2022/07/21 07:16:57;;;;;;;7.78;3.53;;;;;;;27.81;37.34;95188.19;4980626;28;20062;-54
2022/07/21 07:19:22;;;;;;;9.98;3.50;;;;;;;27.72;37.44;95181.69;4960389;28;20491;-54
2022/07/21 07:21:48;;;;;;;9.98;3.50;;;;;;;27.66;38.08;95175.59;4963618;28;20054;-54
2022/07/21 07:24:13;;;;;;;9.65;3.25;;;;;;;27.57;38.51;95174.03;4965628;28;20027;-54
2022/07/21 07:26:39;;;;;;;9.45;3.30;;;;;;;27.56;38.59;95177.31;4968553;28;20046;-54
2022/07/21 07:29:04;;;;;;;10.02;3.60;;;;;;;27.51;38.27;95169.94;4969642;28;20030;-54
2022/07/21 07:31:30;;;;;;;7.38;3.20;;;;;;;27.46;39.07;95174.25;4966991;28;20804;-54
2022/07/21 07:33:58;;;;;;;8.13;3.40;;;;;;;27.42;39.06;95175.84;4969879;28;20042;-54
2022/07/21 07:36:24;;;;;;;7.95;3.72;;;;;;;27.39;39.19;95163.19;4962204;28;20320;-54
2022/07/21 07:38:54;;;;;;;7.72;3.50;;;;;;;27.40;38.69;95176.38;4972986;28;20344;-54
2022/07/21 07:41:20;;;;;;;7.03;3.50;;;;;;;27.47;38.90;95174.97;4972575;28;20054;-53
2022/07/21 07:43:45;;;;;;;5.95;2.90;;;;;;;27.41;39.09;95168.88;4978041;28;20113;-53
2022/07/21 07:46:12;;;;;;;5.68;3.25;;;;;;;27.41;39.44;95166.13;4955008;28;20045;-54
2022/07/21 07:48:38;;;;;;;7.68;3.00;;;;;;;27.33;39.52;95165.31;4965150;28;20553;-54
2022/07/21 07:51:03;;;;;;;9.68;2.92;;;;;;;27.28;39.86;95168.94;4962487;28;20572;-54
2022/07/21 07:53:29;;;;;;;6.82;3.00;;;;;;;27.24;39.67;95163.03;4962172;28;20031;-54
2022/07/21 07:55:54;;;;;;;7.90;2.72;;;;;;;27.20;39.50;95157.13;4966554;28;20159;-54
2022/07/21 07:58:20;;;;;;;5.65;2.75;;;;;;;27.11;39.63;95143.84;4962465;28;20022;-54
2022/07/21 08:00:45;;;;;;;8.10;3.03;;;;;;;27.16;40.01;95156.72;4962683;28;20541;-53
2022/07/21 08:03:11;;;;;;;6.03;2.90;;;;;;;27.14;39.92;95148.28;4962208;28;20022;-54
2022/07/21 08:05:36;;;;;;;6.35;2.65;;;;;;;27.12;40.05;95144.59;4962506;28;20031;-54
2022/07/21 08:08:02;;;;;;;5.40;2.58;;;;;;;27.11;40.38;95141.09;4965810;28;21808;-54
2022/07/21 08:10:27;;;;;;;5.53;2.72;;;;;;;27.09;40.16;95140.91;4965397;28;20125;-54
2022/07/21 08:12:53;;;;;;;5.90;2.92;;;;;;;27.09;40.12;95146.41;4966234;28;20042;-54
2022/07/21 08:15:18;;;;;;;6.00;2.72;;;;;;;27.02;40.18;95141.56;4965063;28;20106;-54
2022/07/21 08:17:44;;;;;;;4.28;2.45;;;;;;;27.04;40.10;95139.03;4965884;28;20391;-54
2022/07/21 08:20:10;;;;;;;6.10;2.78;;;;;;;26.99;39.84;95137.13;4970812;28;21220;-53
2022/07/21 08:22:35;;;;;;;7.35;2.55;;;;;;;27.04;40.66;95133.56;4966020;28;20109;-54
2022/07/21 08:25:01;;;;;;;5.82;2.25;;;;;;;26.99;40.87;95131.66;4966003;28;20476;-54
2022/07/21 08:27:26;;;;;;;6.10;2.40;;;;;;;27.00;41.00;95133.13;4966133;28;20050;-54
2022/07/21 08:29:52;;;;;;;7.65;2.72;;;;;;;26.96;40.35;95126.50;4965957;28;20038;-53
2022/07/21 08:32:18;;;;;;;6.15;2.50;;;;;;;27.02;40.87;95147.03;4972650;28;20038;-53
2022/07/21 08:34:44;;;;;;;6.38;2.40;;;;;;;27.02;40.65;95136.06;4967666;28;20452;-53
2022/07/21 08:37:10;;;;;;;6.70;2.20;;;;;;;27.02;40.60;95140.81;4965158;28;20027;-53
2022/07/21 08:39:35;;;;;;;5.25;2.30;;;;;;;26.94;41.16;95118.81;4966281;28;20065;-54
2022/07/21 08:42:01;;;;;;;6.28;2.45;;;;;;;26.97;40.71;95123.22;4972383;28;20038;-53
2022/07/21 08:44:26;;;;;;;4.70;2.10;;;;;;;27.01;40.77;95129.13;4954734;28;20421;-53
2022/07/21 08:46:52;;;;;;;7.53;2.40;;;;;;;26.97;40.72;95117.75;4966063;28;20061;-53
2022/07/21 08:49:22;;;;;;;5.80;2.13;;;;;;;26.99;40.48;95115.19;4971013;28;20038;-54
2022/07/21 08:51:48;;;;;;;12.02;2.80;;;;;;;26.98;40.43;95119.22;4964903;28;20045;-53
2022/07/21 08:54:14;;;;;;;4.72;2.10;;;;;;;26.99;40.46;95114.47;4963784;28;20027;-54
2022/07/21 08:56:39;;;;;;;3.05;2.03;;;;;;;27.00;40.45;95122.16;4962866;28;20193;-54
2022/07/21 08:59:05;;;;;;;4.90;2.25;;;;;;;26.97;40.20;95106.78;4970256;28;20050;-55
2022/07/21 09:01:31;;;;;;;4.93;2.15;;;;;;;27.01;40.21;95107.19;4970480;28;20066;-56
2022/07/21 09:04:21;;;;;;;3.83;2.05;;;;;;;27.01;40.43;95101.72;4968176;28;20557;-54
2022/07/21 09:06:54;;;;;;;3.00;1.80;;;;;;;27.01;40.56;95098.22;4972154;28;20765;-53
2022/07/21 09:09:22;;;;;;;3.55;2.10;;;;;;;27.04;40.64;95095.16;4969745;28;20567;-55
2022/07/21 09:11:48;;;;;;;2.80;1.83;;;;;;;27.11;40.51;95099.97;4967175;28;20110;-55
2022/07/21 09:14:18;;;;;;;5.28;2.55;;;;;;;27.19;40.03;95109.06;4965102;28;20122;-55
2022/07/21 09:16:47;;;;;;;2.70;1.85;;;;;;;27.29;39.92;95099.09;4968273;28;20486;-54
2022/07/21 09:19:23;;;;;;;3.20;1.92;;;;;;;27.41;39.64;95095.56;4967617;28;20501;-52
2022/07/21 09:21:49;;;;;;;3.05;2.05;;;;;;;27.52;39.49;95094.59;4944663;28;20063;-55
2022/07/21 09:24:19;;;;;;;4.43;2.08;;;;;;;27.66;39.73;95085.03;4947449;28;20051;-57
2022/07/21 09:27:07;;;;;;;5.28;2.10;;;;;;;27.81;39.89;95094.84;4959754;28;20279;-54
2022/07/21 09:29:40;;;;;;;4.60;2.50;;;;;;;27.95;39.15;95088.03;4956590;28;20512;-53
2022/07/21 09:32:36;;;;;;;5.00;2.33;;;;;;;28.10;39.07;95088.19;4956874;28;20498;-53
2022/07/21 09:35:09;;;;;;;3.67;2.17;;;;;;;28.29;38.23;95083.88;4962344;28;20042;-54
2022/07/21 09:37:35;;;;;;;5.00;2.45;;;;;;;28.37;38.39;95078.44;4960298;28;20517;-52
2022/07/21 09:40:07;;;;;;;4.95;2.17;;;;;;;28.49;38.34;95079.59;4965090;28;20081;-52
2022/07/21 09:42:36;;;;;;;5.22;2.03;;;;;;;28.61;37.94;95080.78;4951190;28;20117;-53
2022/07/21 09:45:04;;;;;;;4.80;2.10;;;;;;;28.70;38.13;95080.28;4963405;28;20101;-53
2022/07/21 09:47:30;;;;;;;3.33;1.98;;;;;;;28.78;37.17;95085.28;4964560;28;20035;-52
2022/07/21 09:49:56;;;;;;;2.95;1.98;;;;;;;28.95;37.23;95091.06;4943986;28;20059;-53
2022/07/21 09:52:22;;;;;;;4.32;2.33;;;;;;;29.03;36.97;95086.31;4945274;28;20023;-54
2022/07/21 09:54:48;;;;;;;3.05;1.85;;;;;;;29.14;36.28;95072.22;4951161;28;20988;-54
2022/07/21 09:57:15;;;;;;;3.00;2.10;;;;;;;29.22;35.95;95075.72;4960945;28;20030;-53
2022/07/21 09:59:43;;;;;;;3.05;2.08;;;;;;;29.27;35.30;95074.88;4951809;28;20117;-54
2022/07/21 10:02:10;;;;;;;4.03;2.22;;;;;;;29.30;35.62;95063.50;4973995;28;20033;-57
2022/07/21 10:04:36;;;;;;;4.82;2.22;;;;;;;29.50;35.16;95075.63;4953683;28;20030;-54
2022/07/21 10:07:01;;;;;;;3.80;2.08;;;;;;;29.57;34.65;95074.91;4963052;28;20027;-54
2022/07/21 10:09:27;;;;;;;3.67;2.20;;;;;;;29.62;35.17;95065.75;4950909;28;20026;-54
2022/07/21 10:11:52;;;;;;;3.20;2.10;;;;;;;29.69;34.99;95066.47;4954780;28;20039;-55
2022/07/21 10:14:18;;;;;;;4.32;2.17;;;;;;;29.74;34.97;95062.78;4963404;28;20031;-54
2022/07/21 10:16:43;;;;;;;4.38;2.30;;;;;;;29.72;34.49;95051.59;4960043;28;20809;-53
2022/07/21 10:19:15;;;;;;;2.63;1.88;;;;;;;29.81;34.51;95051.09;4964449;28;20044;-53
2022/07/21 10:22:18;;;;;;;3.60;1.95;;;;;;;29.95;34.21;95066.13;4946908;28;20051;-53
2022/07/21 10:24:43;;;;;;;2.70;2.30;;;;;;;30.00;34.12;95051.47;4963899;28;20046;-53
2022/07/21 10:27:12;;;;;;;3.15;1.80;;;;;;;30.04;34.32;95053.84;4956899;28;20086;-53
2022/07/21 10:29:53;;;;;;;4.67;2.20;;;;;;;30.08;33.81;95049.41;4957993;28;20039;-53
2022/07/21 10:32:24;;;;;;;3.45;2.20;;;;;;;30.12;33.55;95052.53;4951316;28;20369;-54
2022/07/21 10:34:50;;;;;;;2.72;1.98;;;;;;;30.14;33.89;95049.97;4951253;28;20824;-53
2022/07/21 10:37:43;;;;;;;2.58;1.63;;;;;;;30.23;33.43;95043.88;4962844;28;20127;-54
2022/07/21 10:40:20;;;;;;;4.07;2.10;;;;;;;30.27;33.21;95041.50;4945391;28;20030;-54
2022/07/21 10:43:06;;;;;;;2.45;1.85;;;;;;;30.28;33.43;95029.94;4943964;28;20027;-54
2022/07/21 10:45:32;;;;;;;3.80;2.55;;;;;;;30.33;33.53;95031.00;4932327;28;20035;-54
2022/07/21 10:47:58;;;;;;;3.85;1.95;;;;;;;30.35;33.44;95036.72;4946571;28;20027;-52
2022/07/21 10:50:31;;;;;;;3.30;2.03;;;;;;;30.39;33.24;95026.06;4949164;28;20027;-54
2022/07/21 10:53:03;;;;;;;4.20;2.25;;;;;;;30.46;33.12;95015.00;4946992;28;20352;-55
2022/07/21 10:55:36;;;;;;;4.22;2.05;;;;;;;30.53;32.77;95024.56;4943745;28;20023;-54
2022/07/21 10:58:24;;;;;;;2.70;1.92;;;;;;;30.58;32.90;95015.34;4961128;28;20030;-53
2022/07/21 11:00:52;;;;;;;2.88;1.95;;;;;;;30.60;32.62;95019.00;4950237;28;20159;-52
2022/07/21 11:03:25;;;;;;;3.30;1.98;;;;;;;30.62;32.73;95026.72;4947179;28;20106;-53
2022/07/21 11:06:05;;;;;;;3.88;1.80;;;;;;;30.59;32.16;95016.81;4945937;28;20038;-54
2022/07/21 11:09:07;;;;;;;4.95;1.95;;;;;;;30.55;32.29;95010.94;4947798;28;20026;-54
2022/07/21 11:11:34;;;;;;;6.25;1.90;;;;;;;30.42;32.50;95008.41;4938634;28;20126;-52
2022/07/21 11:14:08;;;;;;;2.97;1.83;;;;;;;30.32;33.14;95004.75;4948604;28;20118;-52
2022/07/21 11:16:40;;;;;;;3.97;2.10;;;;;;;30.25;32.88;94999.97;4946349;28;20047;-51
2022/07/21 11:19:34;;;;;;;3.20;2.15;;;;;;;30.18;33.09;95006.25;4942808;28;20055;-52
2022/07/21 11:22:14;;;;;;;4.20;2.30;;;;;;;30.07;33.19;94995.59;4961652;28;20046;-52
2022/07/21 11:24:40;;;;;;;;;;;;;;;30.05;33.51;95014.72;4969555;28;20508;-52
2022/07/21 11:27:13;;;;;;;3.25;2.13;;;;;;;29.91;33.53;95004.44;4969656;28;19917;-52
2022/07/21 11:29:40;;;;;;;5.32;1.92;;;;;;;29.79;34.10;95001.34;4969836;28;20029;-51
2022/07/21 11:32:05;;;;;;;2.58;1.80;;;;;;;29.70;33.70;94990.84;4969187;28;20041;-51
2022/07/21 11:34:43;;;;;;;3.35;1.80;;;;;;;29.68;33.88;94998.91;4972680;28;20030;-51
2022/07/21 11:37:10;;;;;;;2.65;2.00;;;;;;;29.58;34.30;94999.28;4963829;28;20050;-52